Time;durP1;ratioP1;P1;durP2;ratioP2;P2;SDS_P1;SDS_P2;PMS_P1;PMS_P2;Temp;Humidity;BMP_temperature;BMP_pressure;BME280_temperature;BME280_humidity;BME280_pressure;Samples;Min_cycle;Max_cycle;Signal;HPM_P1;HPM_P2
2021/09/14 00:01:03;;;;;;;22.00;10.95;;;;;;;;;;4997351;28;20294;-73
2021/09/14 00:03:28;;;;;;;20.65;12.50;;;;;;;;;;4989026;28;20681;-73
2021/09/14 00:05:54;;;;;;;20.83;10.82;;;;;;;;;;4994239;28;20257;-73
2021/09/14 00:08:19;;;;;;;21.08;11.63;;;;;;;;;;4988928;28;20546;-74
2021/09/14 00:10:44;;;;;;;16.92;10.95;;;;;;;;;;4997896;28;20198;-74
2021/09/14 00:13:10;;;;;;;19.70;11.45;;;;;;;;;;4985753;28;20207;-74
2021/09/14 00:15:35;;;;;;;18.98;11.45;;;;;;;;;;4997370;28;20655;-74
2021/09/14 00:18:00;;;;;;;20.75;11.98;;;;;;;;;;4989935;28;20252;-74
2021/09/14 00:20:26;;;;;;;20.65;10.63;;;;;;;;;;4995166;28;20183;-74
2021/09/14 00:22:51;;;;;;;22.70;11.02;;;;;;;;;;4995410;28;20194;-73
2021/09/14 00:25:17;;;;;;;15.30;9.52;;;;;;;;;;4987829;28;20194;-73
2021/09/14 00:27:42;;;;;;;19.83;11.02;;;;;;;;;;4996478;28;20201;-73
2021/09/14 00:30:08;;;;;;;22.15;11.70;;;;;;;;;;4986713;28;20195;-73
2021/09/14 00:32:33;;;;;;;21.65;12.27;;;;;;;;;;4994468;28;20233;-73
2021/09/14 00:34:59;;;;;;;20.20;11.85;;;;;;;;;;4987608;28;20195;-74
2021/09/14 00:37:24;;;;;;;22.10;12.10;;;;;;;;;;4994508;28;20369;-73
2021/09/14 00:39:49;;;;;;;21.70;13.32;;;;;;;;;;4981569;28;20187;-73
2021/09/14 00:42:15;;;;;;;26.27;12.75;;;;;;;;;;4994402;28;20207;-73
2021/09/14 00:44:40;;;;;;;20.45;12.68;;;;;;;;;;4988661;28;20206;-73
2021/09/14 00:47:06;;;;;;;26.38;12.88;;;;;;;;;;4996260;28;20202;-74
2021/09/14 00:49:31;;;;;;;24.45;13.70;;;;;;;;;;4989090;28;20175;-74
2021/09/14 00:51:56;;;;;;;17.88;11.55;;;;;;;;;;4990143;28;20194;-74
2021/09/14 00:54:23;;;;;;;24.77;13.23;;;;;;;;;;4996561;28;20194;-73
2021/09/14 00:56:49;;;;;;;22.42;12.50;;;;;;;;;;4987276;28;20654;-73
2021/09/14 00:59:14;;;;;;;18.27;11.32;;;;;;;;;;4998009;28;20203;-73
2021/09/14 01:01:39;;;;;;;17.38;11.45;;;;;;;;;;4986672;28;20190;-73
2021/09/14 01:04:06;;;;;;;24.38;13.43;;;;;;;;;;4997117;28;20179;-73
2021/09/14 01:06:32;;;;;;;24.73;13.77;;;;;;;;;;4985619;28;20617;-73
2021/09/14 01:09:00;;;;;;;21.50;13.25;;;;;;;;;;4996597;28;20265;-74
2021/09/14 01:11:26;;;;;;;23.60;14.20;;;;;;;;;;4984828;28;20191;-74
2021/09/14 01:14:03;;;;;;;26.40;13.85;;;;;;;;;;4991950;28;20264;-74
2021/09/14 01:16:31;;;;;;;26.80;13.80;;;;;;;;;;4987322;28;20585;-74
2021/09/14 01:18:57;;;;;;;23.73;12.98;;;;;;;;;;4997384;28;20273;-74
2021/09/14 01:21:22;;;;;;;24.95;13.70;;;;;;;;;;4987215;28;20202;-74
2021/09/14 01:23:48;;;;;;;24.27;13.85;;;;;;;;;;4996124;28;20174;-74
2021/09/14 01:26:13;;;;;;;24.65;13.32;;;;;;;;;;4994717;28;20684;-74
2021/09/14 01:28:38;;;;;;;21.13;12.88;;;;;;;;;;4984993;28;20186;-74
2021/09/14 01:31:04;;;;;;;24.98;14.30;;;;;;;;;;4994983;28;20195;-74
2021/09/14 01:33:29;;;;;;;25.08;12.88;;;;;;;;;;4989173;28;20213;-74
2021/09/14 01:35:54;;;;;;;26.95;14.60;;;;;;;;;;4994744;28;20191;-74
2021/09/14 01:38:20;;;;;;;23.40;13.90;;;;;;;;;;4986209;28;20178;-74
2021/09/14 01:40:47;;;;;;;23.35;14.48;;;;;;;;;;4996043;28;20198;-74
2021/09/14 01:43:13;;;;;;;23.50;14.68;;;;;;;;;;4988802;28;20257;-73
2021/09/14 01:45:38;;;;;;;27.00;14.18;;;;;;;;;;4994365;28;20191;-73
2021/09/14 01:48:04;;;;;;;24.75;15.75;;;;;;;;;;4986669;28;20627;-73
2021/09/14 01:50:30;;;;;;;34.40;17.52;;;;;;;;;;4994049;28;20203;-74
2021/09/14 01:52:56;;;;;;;23.98;15.15;;;;;;;;;;4989603;28;20206;-75
2021/09/14 01:55:21;;;;;;;31.98;15.90;;;;;;;;;;4993299;28;20194;-73
2021/09/14 01:57:48;;;;;;;22.45;14.73;;;;;;;;;;4994852;28;20205;-74
2021/09/14 02:00:20;;;;;;;25.70;14.80;;;;;;;;;;4987445;28;20579;-73
2021/09/14 02:03:12;;;;;;;24.92;14.75;;;;;;;;;;4994732;28;20197;-75
2021/09/14 02:05:54;;;;;;;27.38;15.05;;;;;;;;;;4986827;28;21118;-75
2021/09/14 02:59:34;;;;;;;27.85;16.67;;;;;;;;;;4997961;28;20661;-74
2021/09/14 03:02:00;;;;;;;32.20;18.25;;;;;;;;;;4988258;28;20203;-74
2021/09/14 03:04:26;;;;;;;34.22;17.40;;;;;;;;;;4996154;28;20198;-74
2021/09/14 03:06:51;;;;;;;35.15;18.15;;;;;;;;;;4990767;28;20312;-73
2021/09/14 03:09:17;;;;;;;32.50;18.63;;;;;;;;;;4993929;28;20191;-74
2021/09/14 03:11:42;;;;;;;32.75;19.63;;;;;;;;;;4998298;28;20256;-73
2021/09/14 03:14:07;;;;;;;43.33;20.95;;;;;;;;;;4988603;28;20609;-74
2021/09/14 03:16:34;;;;;;;43.30;22.92;;;;;;;;;;4998304;28;20194;-74
2021/09/14 03:18:59;;;;;;;40.70;21.65;;;;;;;;;;4989237;28;20190;-74
2021/09/14 03:21:25;;;;;;;44.88;22.98;;;;;;;;;;4996832;28;20190;-74
2021/09/14 03:23:50;;;;;;;41.83;22.35;;;;;;;;;;4988687;28;20258;-74
2021/09/14 03:26:16;;;;;;;47.67;23.38;;;;;;;;;;4996615;28;20205;-74
2021/09/14 03:28:41;;;;;;;53.65;24.38;;;;;;;;;;4985013;28;20282;-74
2021/09/14 03:31:06;;;;;;;53.72;25.88;;;;;;;;;;4995780;28;20688;-74
2021/09/14 03:33:32;;;;;;;45.42;24.58;;;;;;;;;;4985402;28;20238;-74
2021/09/14 03:35:57;;;;;;;55.90;26.58;;;;;;;;;;4994346;28;20206;-74
2021/09/14 03:38:23;;;;;;;55.78;26.60;;;;;;;;;;4996326;28;20196;-74
2021/09/14 03:40:48;;;;;;;45.80;22.83;;;;;;;;;;4985409;28;20577;-74
2021/09/14 03:43:14;;;;;;;51.00;26.52;;;;;;;;;;4992777;28;20195;-74
2021/09/14 03:45:43;;;;;;;56.17;26.48;;;;;;;;;;4987567;28;20194;-74
2021/09/14 03:48:08;;;;;;;52.90;26.05;;;;;;;;;;4994798;28;20838;-74
2021/09/14 03:50:33;;;;;;;52.45;25.70;;;;;;;;;;4987018;28;20191;-73
2021/09/14 03:52:59;;;;;;;59.22;27.80;;;;;;;;;;4995773;28;20229;-73
2021/09/14 03:55:24;;;;;;;52.90;26.27;;;;;;;;;;4987026;28;20799;-73
2021/09/14 03:57:49;;;;;;;48.47;25.95;;;;;;;;;;4995578;28;20260;-74
2021/09/14 04:00:15;;;;;;;54.63;26.63;;;;;;;;;;4985190;28;20563;-73
2021/09/14 04:02:45;;;;;;;56.03;26.80;;;;;;;;;;4995868;28;20202;-74
2021/09/14 04:10:02;;;;;;;52.95;24.67;;;;;;;;;;4995997;28;20209;-73
2021/09/14 04:12:27;;;;;;;58.33;27.25;;;;;;;;;;4985762;28;20206;-74
2021/09/14 04:14:53;;;;;;;60.00;27.92;;;;;;;;;;4996333;28;20541;-73
2021/09/14 04:17:18;;;;;;;59.42;27.25;;;;;;;;;;4986255;28;20198;-73
2021/09/14 04:19:43;;;;;;;54.38;25.92;;;;;;;;;;4995848;28;20229;-73
2021/09/14 04:22:09;;;;;;;58.60;26.73;;;;;;;;;;4986611;28;20221;-74
2021/09/14 04:24:34;;;;;;;54.22;25.75;;;;;;;;;;4994564;28;20186;-73
2021/09/14 04:26:59;;;;;;;55.45;25.55;;;;;;;;;;4988696;28;20258;-74
2021/09/14 04:29:25;;;;;;;46.90;24.00;;;;;;;;;;4992530;28;20607;-74
2021/09/14 04:31:50;;;;;;;54.72;25.85;;;;;;;;;;4985766;28;20532;-74
2021/09/14 04:34:15;;;;;;;57.85;27.42;;;;;;;;;;4994342;28;20221;-74
2021/09/14 04:36:41;;;;;;;54.72;26.42;;;;;;;;;;4991645;28;20205;-74
2021/09/14 04:39:06;;;;;;;51.35;24.83;;;;;;;;;;4991507;28;20203;-75
2021/09/14 04:41:31;;;;;;;57.42;26.77;;;;;;;;;;4992557;28;20657;-73
2021/09/14 04:43:57;;;;;;;60.95;26.17;;;;;;;;;;4985015;28;20195;-74
2021/09/14 04:46:22;;;;;;;54.67;26.33;;;;;;;;;;4994772;28;20197;-73
2021/09/14 04:48:47;;;;;;;54.88;26.63;;;;;;;;;;4985755;28;20270;-73
2021/09/14 04:51:13;;;;;;;64.88;28.50;;;;;;;;;;4994746;28;20720;-73
2021/09/14 04:53:38;;;;;;;61.63;27.67;;;;;;;;;;4987739;28;20219;-73
2021/09/14 04:56:04;;;;;;;54.35;26.08;;;;;;;;;;4995018;28;20265;-73
2021/09/14 04:58:29;;;;;;;63.28;28.80;;;;;;;;;;4986835;28;20264;-73
2021/09/14 05:00:54;;;;;;;56.28;27.73;;;;;;;;;;4991564;28;20891;-73
2021/09/14 05:03:20;;;;;;;41.20;20.65;;;;;;;;;;4984690;28;20197;-73
2021/09/14 05:05:45;;;;;;;57.47;27.23;;;;;;;;;;4300697;28;10000727;-74
2021/09/14 05:08:10;;;;;;;57.47;27.80;;;;;;;;;;4989577;28;20696;-73
2021/09/14 05:10:36;;;;;;;65.88;29.55;;;;;;;;;;4983307;28;20217;-73
2021/09/14 05:13:03;;;;;;;68.05;29.98;;;;;;;;;;4994445;28;20599;-73
2021/09/14 05:15:28;;;;;;;60.80;28.13;;;;;;;;;;4982122;28;20209;-73
2021/09/14 05:17:54;;;;;;;63.42;29.20;;;;;;;;;;4994232;28;20198;-74
2021/09/14 05:20:19;;;;;;;60.25;28.85;;;;;;;;;;4983175;28;20187;-74
2021/09/14 05:22:46;;;;;;;59.20;28.15;;;;;;;;;;4994809;28;20182;-73
2021/09/14 05:25:11;;;;;;;62.83;28.38;;;;;;;;;;4986142;28;20233;-73
2021/09/14 05:27:37;;;;;;;63.22;29.05;;;;;;;;;;4994286;28;20218;-73
2021/09/14 05:30:03;;;;;;;63.35;28.45;;;;;;;;;;4984111;28;20207;-73
2021/09/14 05:32:29;;;;;;;58.58;27.10;;;;;;;;;;4992103;28;20282;-73
2021/09/14 05:34:54;;;;;;;59.75;27.55;;;;;;;;;;4988435;28;20666;-73
2021/09/14 05:37:21;;;;;;;54.35;26.85;;;;;;;;;;4990542;28;20194;-73
2021/09/14 05:39:47;;;;;;;57.25;26.58;;;;;;;;;;4995367;28;20265;-73
2021/09/14 05:42:12;;;;;;;59.97;26.73;;;;;;;;;;4983979;28;20583;-73
2021/09/14 05:44:37;;;;;;;58.30;27.27;;;;;;;;;;4992102;28;20228;-74
2021/09/14 05:47:04;;;;;;;58.50;27.17;;;;;;;;;;4981946;28;20309;-73
2021/09/14 05:49:29;;;;;;;60.10;27.00;;;;;;;;;;4995941;28;20194;-72
2021/09/14 05:51:55;;;;;;;53.22;26.20;;;;;;;;;;4982748;28;20553;-73
2021/09/14 05:54:21;;;;;;;56.72;25.58;;;;;;;;;;4991578;28;20303;-73
2021/09/14 05:56:46;;;;;;;56.08;26.27;;;;;;;;;;4985692;28;20194;-73
2021/09/14 05:59:12;;;;;;;51.70;25.63;;;;;;;;;;4991811;28;20214;-73
2021/09/14 06:01:37;;;;;;;55.42;25.70;;;;;;;;;;4981472;28;20568;-73
2021/09/14 06:04:02;;;;;;;45.55;23.88;;;;;;;;;;4991453;28;20198;-73
2021/09/14 06:06:28;;;;;;;49.42;25.50;;;;;;;;;;4990249;28;20230;-74
2021/09/14 06:08:53;;;;;;;48.08;26.25;;;;;;;;;;4987874;28;20198;-73
2021/09/14 06:11:19;;;;;;;52.55;25.35;;;;;;;;;;4993534;28;20194;-73
2021/09/14 06:13:44;;;;;;;47.75;24.48;;;;;;;;;;4984830;28;20249;-74
2021/09/14 06:16:09;;;;;;;53.70;24.67;;;;;;;;;;4993822;28;20198;-73
2021/09/14 06:18:35;;;;;;;48.65;24.92;;;;;;;;;;4987804;28;20186;-73
2021/09/14 06:21:00;;;;;;;50.58;25.67;;;;;;;;;;4995029;28;20190;-74
2021/09/14 06:23:26;;;;;;;42.55;24.23;;;;;;;;;;4984955;28;23048;-73
2021/09/14 06:25:51;;;;;;;54.08;25.15;;;;;;;;;;4995816;28;20256;-74
2021/09/14 06:28:16;;;;;;;46.50;24.80;;;;;;;;;;4987006;28;20214;-73
2021/09/14 06:30:42;;;;;;;49.83;24.73;;;;;;;;;;4992130;28;20191;-74
2021/09/14 06:33:07;;;;;;;49.47;25.27;;;;;;;;;;4987218;28;20296;-73
2021/09/14 06:35:35;;;;;;;42.80;24.10;;;;;;;;;;4991820;28;20663;-74
2021/09/14 06:38:00;;;;;;;41.72;22.67;;;;;;;;;;4994471;28;20182;-74
2021/09/14 06:40:26;;;;;;;44.70;24.58;;;;;;;;;;4985285;28;20198;-73
2021/09/14 06:42:51;;;;;;;43.70;21.95;;;;;;;;;;4993711;28;20175;-73
2021/09/14 06:45:16;;;;;;;42.90;24.02;;;;;;;;;;4984881;28;20199;-73
2021/09/14 06:47:42;;;;;;;41.00;22.48;;;;;;;;;;4996110;28;20710;-74
2021/09/14 06:50:07;;;;;;;41.53;22.80;;;;;;;;;;4985402;28;20187;-74
2021/09/14 06:52:33;;;;;;;46.88;23.73;;;;;;;;;;4995913;28;20238;-74
2021/09/14 06:54:58;;;;;;;44.97;23.55;;;;;;;;;;4985226;28;20219;-74
2021/09/14 06:57:23;;;;;;;37.65;22.70;;;;;;;;;;4992260;28;20216;-73
2021/09/14 06:59:49;;;;;;;42.13;23.17;;;;;;;;;;4983013;28;20574;-73
2021/09/14 07:02:14;;;;;;;39.25;22.40;;;;;;;;;;4994804;28;20277;-73
2021/09/14 07:04:40;;;;;;;37.38;21.70;;;;;;;;;;4993503;28;20195;-73
2021/09/14 07:07:05;;;;;;;36.40;21.67;;;;;;;;;;4989504;28;20261;-73
2021/09/14 07:09:31;;;;;;;35.70;21.60;;;;;;;;;;4997239;28;20259;-74
2021/09/14 07:11:56;;;;;;;34.92;20.55;;;;;;;;;;4991981;28;20557;-73
2021/09/14 07:14:21;;;;;;;36.22;21.52;;;;;;;;;;4995538;28;20245;-73
2021/09/14 07:16:46;;;;;;;34.30;20.80;;;;;;;;;;4990076;28;20226;-73
2021/09/14 07:19:12;;;;;;;35.78;21.45;;;;;;;;;;4998357;28;20217;-73
2021/09/14 07:21:37;;;;;;;33.33;19.40;;;;;;;;;;4991518;28;20194;-73
2021/09/14 07:24:03;;;;;;;31.40;20.42;;;;;;;;;;4997543;28;20207;-73
2021/09/14 07:26:28;;;;;;;32.10;18.90;;;;;;;;;;4991240;28;20199;-73
2021/09/14 07:28:53;;;;;;;31.88;18.30;;;;;;;;;;4998237;28;21013;-73
2021/09/14 07:31:19;;;;;;;28.08;18.80;;;;;;;;;;4991394;28;20249;-73
2021/09/14 07:33:44;;;;;;;31.98;19.77;;;;;;;;;;4998612;28;21444;-73
2021/09/14 07:36:10;;;;;;;28.60;18.70;;;;;;;;;;4999009;28;20199;-73
2021/09/14 07:38:36;;;;;;;27.13;18.65;;;;;;;;;;4989961;28;20197;-73
2021/09/14 07:41:03;;;;;;;31.63;18.67;;;;;;;;;;4995921;28;20195;-73
2021/09/14 07:43:28;;;;;;;29.67;17.48;;;;;;;;;;4988631;28;20201;-73
2021/09/14 07:45:53;;;;;;;30.92;18.92;;;;;;;;;;4999502;28;20191;-73
2021/09/14 07:48:19;;;;;;;26.13;17.00;;;;;;;;;;4989003;28;20285;-73
2021/09/14 07:50:44;;;;;;;29.90;17.13;;;;;;;;;;4999648;28;20249;-73
2021/09/14 07:53:10;;;;;;;29.77;18.45;;;;;;;;;;4988238;28;20281;-73
2021/09/14 07:55:35;;;;;;;28.40;18.58;;;;;;;;;;4998651;28;20304;-73
2021/09/14 07:58:01;;;;;;;32.03;18.45;;;;;;;;;;4990445;28;22263;-73
2021/09/14 08:00:26;;;;;;;28.20;17.77;;;;;;;;;;5000097;28;20187;-73
2021/09/14 08:02:53;;;;;;;28.33;18.17;;;;;;;;;;4997978;28;20183;-72
2021/09/14 08:05:19;;;;;;;26.63;16.95;;;;;;;;;;4992839;28;20526;-73
2021/09/14 08:07:44;;;;;;;24.15;17.20;;;;;;;;;;4999131;28;20191;-73
2021/09/14 08:10:10;;;;;;;23.17;16.30;;;;;;;;;;4989214;28;20207;-74
2021/09/14 08:12:35;;;;;;;24.02;16.33;;;;;;;;;;4993127;28;20207;-73
2021/09/14 08:15:00;;;;;;;23.80;15.98;;;;;;;;;;4983668;28;20199;-72
2021/09/14 08:17:25;;;;;;;23.48;17.67;;;;;;;;;;4991194;28;20662;-73
2021/09/14 08:19:51;;;;;;;27.80;14.65;;;;;;;;;;4988048;28;20561;-73
2021/09/14 08:22:17;;;;;;;21.02;14.98;;;;;;;;;;4994527;28;20237;-72
2021/09/14 08:24:42;;;;;;;25.27;14.48;;;;;;;;;;4984864;28;20202;-72
2021/09/14 08:27:08;;;;;;;19.60;14.85;;;;;;;;;;4992661;28;20205;-72
2021/09/14 08:29:33;;;;;;;20.67;15.07;;;;;;;;;;4986268;28;20299;-73
2021/09/14 08:31:58;;;;;;;20.00;15.52;;;;;;;;;;4993786;28;20725;-73
2021/09/14 08:34:24;;;;;;;19.50;13.38;;;;;;;;;;4993728;28;20223;-73
2021/09/14 08:36:49;;;;;;;20.20;14.30;;;;;;;;;;4978989;28;20216;-72
2021/09/14 08:39:15;;;;;;;23.10;13.25;;;;;;;;;;4993493;28;20190;-73
2021/09/14 08:41:43;;;;;;;19.80;13.95;;;;;;;;;;4986151;28;22176;-73
2021/09/14 08:44:08;;;;;;;21.33;14.13;;;;;;;;;;4994734;28;20202;-74
2021/09/14 08:46:35;;;;;;;17.77;13.20;;;;;;;;;;4984928;28;20615;-74
2021/09/14 08:49:01;;;;;;;18.67;12.80;;;;;;;;;;4992340;28;20512;-74
2021/09/14 08:51:26;;;;;;;19.27;13.40;;;;;;;;;;4977321;28;20218;-74
2021/09/14 08:53:52;;;;;;;18.40;13.55;;;;;;;;;;4976146;28;20261;-74
2021/09/14 08:56:17;;;;;;;17.67;13.68;;;;;;;;;;4983687;28;20502;-73
2021/09/14 08:58:42;;;;;;;16.17;12.93;;;;;;;;;;4995087;28;20431;-73
2021/09/14 09:01:14;;;;;;;17.52;12.93;;;;;;;;;;4986332;28;20681;-74
2021/09/14 09:03:40;;;;;;;15.02;11.57;;;;;;;;;;4993023;28;20213;-74
2021/09/14 09:06:06;;;;;;;14.70;12.93;;;;;;;;;;4989882;28;20722;-74
2021/09/14 09:08:33;;;;;;;19.15;13.52;;;;;;;;;;4985784;28;20178;-74
2021/09/14 09:11:12;;;;;;;19.95;13.43;;;;;;;;;;4990101;28;20196;-74
2021/09/14 09:13:44;;;;;;;18.35;13.57;;;;;;;;;;4985584;28;20214;-74
2021/09/14 09:16:19;;;;;;;16.27;13.15;;;;;;;;;;4990013;28;20198;-74
2021/09/14 09:18:50;;;;;;;16.02;12.63;;;;;;;;;;4981611;28;20202;-74
2021/09/14 09:21:15;;;;;;;17.17;12.10;;;;;;;;;;4993814;28;20725;-74
2021/09/14 09:23:41;;;;;;;16.48;12.13;;;;;;;;;;4983866;28;20194;-74
2021/09/14 09:26:08;;;;;;;15.50;12.88;;;;;;;;;;4991397;28;20272;-74
2021/09/14 09:28:34;;;;;;;17.23;12.02;;;;;;;;;;4982343;28;20203;-74
2021/09/14 09:31:02;;;;;;;16.80;12.23;;;;;;;;;;4990504;28;20190;-74
2021/09/14 09:33:29;;;;;;;15.00;12.23;;;;;;;;;;4982759;28;20297;-74
2021/09/14 09:36:05;;;;;;;15.73;13.00;;;;;;;;;;4990799;28;20489;-74
2021/09/14 09:38:31;;;;;;;16.92;13.05;;;;;;;;;;4981977;28;20202;-74
2021/09/14 09:40:57;;;;;;;16.00;12.48;;;;;;;;;;4994090;28;20195;-74
2021/09/14 09:43:28;;;;;;;15.70;12.00;;;;;;;;;;4986730;28;20197;-74
2021/09/14 09:46:07;;;;;;;15.25;12.80;;;;;;;;;;4993074;28;20187;-74
2021/09/14 09:48:35;;;;;;;17.02;12.70;;;;;;;;;;4991107;28;20194;-74
2021/09/14 09:51:00;;;;;;;17.05;12.82;;;;;;;;;;4984275;28;20191;-73
2021/09/14 09:53:26;;;;;;;17.17;13.18;;;;;;;;;;4986257;28;20569;-73
2021/09/14 09:55:51;;;;;;;18.15;12.70;;;;;;;;;;4983557;28;20182;-73
2021/09/14 09:58:17;;;;;;;14.82;12.75;;;;;;;;;;4991055;28;20686;-72
2021/09/14 10:00:55;;;;;;;16.60;13.15;;;;;;;;;;4982130;28;20191;-74
2021/09/14 10:03:26;;;;;;;16.05;13.15;;;;;;;;;;4989009;28;20187;-74
2021/09/14 10:05:55;;;;;;;16.45;12.65;;;;;;;;;;4982944;28;20596;-74
2021/09/14 10:08:23;;;;;;;17.05;12.40;;;;;;;;;;4994677;28;20229;-74
2021/09/14 10:10:56;;;;;;;17.73;13.93;;;;;;;;;;4984950;28;20203;-73
2021/09/14 10:13:48;;;;;;;17.27;14.30;;;;;;;;;;4992512;28;20206;-73
2021/09/14 10:16:23;;;;;;;17.25;13.63;;;;;;;;;;4981184;28;20202;-74
2021/09/14 10:18:48;;;;;;;15.93;13.18;;;;;;;;;;4992008;28;20332;-73
2021/09/14 10:21:19;;;;;;;15.10;13.50;;;;;;;;;;4985016;28;20290;-73
2021/09/14 10:23:53;;;;;;;19.27;13.57;;;;;;;;;;4993268;28;20179;-73
2021/09/14 10:26:19;;;;;;;18.52;13.13;;;;;;;;;;4984084;28;20190;-73
2021/09/14 10:28:46;;;;;;;20.80;14.27;;;;;;;;;;4990567;28;20346;-73
2021/09/14 10:31:19;;;;;;;17.80;13.82;;;;;;;;;;4982828;28;20199;-72
2021/09/14 10:33:44;;;;;;;16.98;13.35;;;;;;;;;;4991711;28;20246;-74
2021/09/14 10:36:13;;;;;;;17.92;13.77;;;;;;;;;;4981371;28;20273;-73
2021/09/14 10:38:47;;;;;;;19.95;13.00;;;;;;;;;;4991099;28;20199;-72
2021/09/14 10:41:15;;;;;;;17.98;12.40;;;;;;;;;;4993951;28;20190;-72
2021/09/14 10:43:52;;;;;;;15.60;12.95;;;;;;;;;;4986311;28;20182;-73
2021/09/14 10:46:24;;;;;;;16.65;12.82;;;;;;;;;;4995503;28;20199;-72
2021/09/14 10:48:53;;;;;;;17.08;12.30;;;;;;;;;;4984051;28;20612;-73
2021/09/14 10:51:19;;;;;;;16.98;13.30;;;;;;;;;;4995216;28;20597;-73
2021/09/14 10:53:56;;;;;;;15.85;12.50;;;;;;;;;;4987411;28;20206;-73
2021/09/14 10:56:22;;;;;;;15.18;12.40;;;;;;;;;;4993239;28;20182;-73
2021/09/14 10:58:47;;;;;;;13.60;12.20;;;;;;;;;;4984334;28;20222;-74
2021/09/14 11:01:14;;;;;;;15.27;12.63;;;;;;;;;;4998290;28;20191;-73
2021/09/14 11:03:40;;;;;;;14.75;11.48;;;;;;;;;;4982699;28;20646;-71
2021/09/14 11:06:08;;;;;;;15.98;11.40;;;;;;;;;;4995948;28;20227;-72
2021/09/14 11:08:34;;;;;;;15.13;11.80;;;;;;;;;;4983982;28;20209;-73
2021/09/14 11:11:01;;;;;;;14.35;11.00;;;;;;;;;;4994333;28;20514;-73
2021/09/14 11:13:29;;;;;;;13.02;11.27;;;;;;;;;;4986646;28;20344;-73
2021/09/14 11:15:57;;;;;;;16.73;10.98;;;;;;;;;;4992402;28;20309;-73
2021/09/14 11:18:24;;;;;;;15.57;11.63;;;;;;;;;;4985523;28;20236;-73
2021/09/14 11:20:50;;;;;;;13.75;10.75;;;;;;;;;;4991903;28;20198;-74
2021/09/14 11:23:22;;;;;;;17.10;11.57;;;;;;;;;;4994537;28;20229;-74
2021/09/14 11:25:48;;;;;;;14.60;11.07;;;;;;;;;;4984001;28;20322;-75
2021/09/14 11:28:16;;;;;;;13.93;9.68;;;;;;;;;;4991161;28;20198;-74
2021/09/14 11:30:55;;;;;;;15.15;10.63;;;;;;;;;;4981211;28;20198;-74
2021/09/14 11:33:21;;;;;;;13.98;10.02;;;;;;;;;;4994893;28;20198;-74
2021/09/14 11:35:47;;;;;;;12.63;10.63;;;;;;;;;;4979945;28;20191;-74
2021/09/14 11:38:15;;;;;;;13.45;10.38;;;;;;;;;;4994676;28;20199;-74
2021/09/14 11:40:55;;;;;;;15.77;10.23;;;;;;;;;;4987960;28;20187;-75
2021/09/14 11:43:29;;;;;;;13.73;9.10;;;;;;;;;;4995075;28;20201;-74
2021/09/14 11:45:56;;;;;;;11.68;9.18;;;;;;;;;;4984789;28;20195;-74
2021/09/14 11:48:23;;;;;;;12.27;9.05;;;;;;;;;;4994854;28;20662;-74
2021/09/14 11:51:04;;;;;;;11.43;9.27;;;;;;;;;;4983685;28;20179;-76
2021/09/14 11:53:29;;;;;;;12.80;9.35;;;;;;;;;;4989892;28;20913;-75
2021/09/14 11:55:55;;;;;;;10.18;8.32;;;;;;;;;;4990599;28;20199;-75
2021/09/14 11:58:31;;;;;;;10.30;8.13;;;;;;;;;;4993294;28;20620;-75
2021/09/14 12:01:06;;;;;;;13.10;8.55;;;;;;;;;;4985951;28;20317;-75
2021/09/14 12:03:48;;;;;;;15.57;9.60;;;;;;;;;;4994494;28;20189;-74
2021/09/14 12:06:27;;;;;;;12.20;8.50;;;;;;;;;;4989419;28;20851;-74
2021/09/14 12:08:56;;;;;;;14.23;9.20;;;;;;;;;;4990281;28;20270;-74
2021/09/14 12:11:27;;;;;;;12.35;8.52;;;;;;;;;;4984928;28;20193;-74
2021/09/14 12:13:58;;;;;;;12.02;8.73;;;;;;;;;;4993787;28;20211;-75
2021/09/14 12:16:28;;;;;;;13.07;9.45;;;;;;;;;;4984079;28;20194;-75
2021/09/14 12:18:57;;;;;;;13.00;8.10;;;;;;;;;;4990387;28;20202;-75
2021/09/14 12:21:23;;;;;;;10.13;7.20;;;;;;;;;;4994599;28;20197;-74
2021/09/14 12:23:49;;;;;;;11.82;7.65;;;;;;;;;;4984608;28;20183;-74
2021/09/14 12:26:23;;;;;;;9.18;7.90;;;;;;;;;;4997132;28;20211;-75
2021/09/14 12:28:50;;;;;;;12.25;8.50;;;;;;;;;;4984970;28;20272;-74
2021/09/14 12:31:17;;;;;;;11.52;7.70;;;;;;;;;;4994916;28;20199;-74
2021/09/14 12:33:43;;;;;;;13.63;8.60;;;;;;;;;;4985101;28;20215;-75
2021/09/14 12:36:09;;;;;;;12.45;7.85;;;;;;;;;;4996752;28;20245;-75
2021/09/14 12:38:34;;;;;;;8.60;7.15;;;;;;;;;;4985407;28;20194;-74
2021/09/14 12:41:00;;;;;;;14.75;8.00;;;;;;;;;;4995467;28;20191;-75
2021/09/14 12:43:26;;;;;;;10.27;8.50;;;;;;;;;;4988724;28;20266;-74
2021/09/14 12:45:51;;;;;;;11.10;8.45;;;;;;;;;;4994980;28;20199;-75
2021/09/14 12:48:16;;;;;;;11.45;8.25;;;;;;;;;;4986853;28;20215;-75
2021/09/14 12:50:42;;;;;;;10.65;8.15;;;;;;;;;;5001634;28;20198;-75
2021/09/14 12:53:07;;;;;;;10.55;7.47;;;;;;;;;;4997746;28;20663;-75
2021/09/14 12:55:34;;;;;;;10.40;7.85;;;;;;;;;;4992493;28;20205;-75
2021/09/14 12:58:01;;;;;;;10.38;6.90;;;;;;;;;;4990890;28;20214;-74
2021/09/14 13:00:27;;;;;;;11.80;7.65;;;;;;;;;;4990794;28;20285;-75
2021/09/14 13:02:52;;;;;;;11.07;7.88;;;;;;;;;;4993495;28;20354;-75
2021/09/14 13:05:17;;;;;;;8.55;7.65;;;;;;;;;;4987360;28;20699;-74
2021/09/14 13:07:43;;;;;;;12.68;8.20;;;;;;;;;;4996311;28;20231;-74
2021/09/14 13:10:11;;;;;;;10.95;8.20;;;;;;;;;;4986758;28;20246;-74
2021/09/14 13:12:37;;;;;;;10.50;8.35;;;;;;;;;;4994116;28;20206;-75
2021/09/14 13:17:47;;;;;;;10.57;7.60;;;;;;;;;;4998904;28;20196;-74
2021/09/14 13:20:12;;;;;;;10.85;7.82;;;;;;;;;;4987267;28;20190;-74
2021/09/14 13:22:38;;;;;;;10.02;7.40;;;;;;;;;;4991412;28;20187;-74
2021/09/14 13:25:03;;;;;;;10.23;8.15;;;;;;;;;;4990928;28;20182;-74
2021/09/14 13:27:29;;;;;;;8.02;6.53;;;;;;;;;;4303139;28;10000774;-74
2021/09/14 13:29:54;;;;;;;9.63;7.13;;;;;;;;;;4997624;28;20970;-72
2021/09/14 13:32:19;;;;;;;10.75;6.70;;;;;;;;;;4986375;28;20275;-73
2021/09/14 13:34:45;;;;;;;8.30;6.53;;;;;;;;;;4994568;28;20316;-74
2021/09/14 13:37:10;;;;;;;7.60;5.63;;;;;;;;;;4984331;28;20256;-74
2021/09/14 13:39:36;;;;;;;13.00;7.10;;;;;;;;;;4993604;28;20187;-72
2021/09/14 13:42:02;;;;;;;9.10;7.70;;;;;;;;;;4985433;28;20194;-75
2021/09/14 13:46:59;;;;;;;9.15;7.15;;;;;;;;;;4985194;28;20191;-75
2021/09/14 13:49:25;;;;;;;7.93;6.38;;;;;;;;;;4994062;28;20199;-74
2021/09/14 13:51:52;;;;;;;10.27;7.68;;;;;;;;;;4981276;28;20273;-75
2021/09/14 13:54:17;;;;;;;8.18;7.00;;;;;;;;;;4993728;28;20217;-75
2021/09/14 13:56:42;;;;;;;9.18;8.18;;;;;;;;;;4986828;28;20182;-74
2021/09/14 13:59:08;;;;;;;10.93;7.95;;;;;;;;;;4994271;28;20260;-74
2021/09/14 14:01:37;;;;;;;11.60;6.82;;;;;;;;;;4997500;28;20629;-75
2021/09/14 14:04:02;;;;;;;9.77;6.82;;;;;;;;;;4987732;28;20551;-75
2021/09/14 14:06:28;;;;;;;8.25;6.93;;;;;;;;;;4997338;28;20247;-74
2021/09/14 14:08:53;;;;;;;9.15;7.00;;;;;;;;;;4991268;28;20198;-74
2021/09/14 14:11:20;;;;;;;9.65;7.10;;;;;;;;;;4995607;28;20193;-75
2021/09/14 14:13:46;;;;;;;8.23;6.93;;;;;;;;;;4988977;28;20225;-76
2021/09/14 14:16:12;;;;;;;10.93;7.13;;;;;;;;;;4999069;28;20249;-74
2021/09/14 14:18:37;;;;;;;9.32;6.82;;;;;;;;;;4994901;28;20226;-74
2021/09/14 14:21:03;;;;;;;9.15;5.63;;;;;;;;;;5002421;28;20700;-74
2021/09/14 14:23:29;;;;;;;8.77;4.82;;;;;;;;;;4992629;28;20214;-75
2021/09/14 14:25:55;;;;;;;7.78;5.00;;;;;;;;;;5000971;28;20199;-75
2021/09/14 14:28:21;;;;;;;7.47;5.00;;;;;;;;;;4994813;28;20195;-75
2021/09/14 14:30:46;;;;;;;6.20;5.28;;;;;;;;;;4994559;28;20187;-75
2021/09/14 14:33:11;;;;;;;6.50;4.97;;;;;;;;;;5003653;28;20708;-75
2021/09/14 14:35:37;;;;;;;7.35;4.80;;;;;;;;;;4991708;28;20788;-75
2021/09/14 14:38:02;;;;;;;5.38;4.88;;;;;;;;;;5002746;28;20198;-75
2021/09/14 14:40:28;;;;;;;7.15;4.95;;;;;;;;;;4995218;28;20186;-76
2021/09/14 14:42:53;;;;;;;9.15;5.38;;;;;;;;;;5002763;28;20202;-75
2021/09/14 14:45:19;;;;;;;6.10;5.32;;;;;;;;;;4993935;28;20205;-75
2021/09/14 14:47:52;;;;;;;7.45;4.75;;;;;;;;;;5000615;28;20194;-75
2021/09/14 14:50:18;;;;;;;7.57;4.88;;;;;;;;;;4989664;28;20642;-75
2021/09/14 14:52:44;;;;;;;6.55;5.18;;;;;;;;;;5000465;28;20249;-75
2021/09/14 14:55:10;;;;;;;6.45;4.97;;;;;;;;;;4991298;28;20281;-75
2021/09/14 14:57:35;;;;;;;7.15;4.70;;;;;;;;;;4998356;28;20214;-75
2021/09/14 15:00:00;;;;;;;6.65;4.90;;;;;;;;;;5001057;28;20198;-75
2021/09/14 15:02:26;;;;;;;6.07;4.72;;;;;;;;;;4991438;28;20221;-75
2021/09/14 15:04:51;;;;;;;9.00;5.68;;;;;;;;;;5001370;28;20201;-75
2021/09/14 15:07:16;;;;;;;10.35;5.25;;;;;;;;;;4993078;28;20230;-75
2021/09/14 15:09:42;;;;;;;8.90;5.13;;;;;;;;;;5005523;28;20197;-76
2021/09/14 15:12:07;;;;;;;9.27;5.25;;;;;;;;;;4992479;28;20186;-75
2021/09/14 15:14:32;;;;;;;9.68;5.60;;;;;;;;;;5000331;28;20234;-75
2021/09/14 15:16:58;;;;;;;7.15;5.00;;;;;;;;;;4988451;28;20275;-75
2021/09/14 15:19:23;;;;;;;9.05;5.15;;;;;;;;;;4997344;28;20199;-75